sensor_id;sensor_type;location;lat;lon;timestamp;P1;durP1;ratioP1;P2;durP2;ratioP2
35990;SDS011;22064;42.672;23.282;2022-11-20T00:01:47;4.65;;;2.05;;
35990;SDS011;22064;42.672;23.282;2022-11-20T00:04:13;7.63;;;1.70;;
35990;SDS011;22064;42.672;23.282;2022-11-20T00:06:38;4.20;;;1.65;;
35990;SDS011;22064;42.672;23.282;2022-11-20T00:09:04;6.35;;;1.77;;
35990;SDS011;22064;42.672;23.282;2022-11-20T00:11:31;3.47;;;1.35;;
35990;SDS011;22064;42.672;23.282;2022-11-20T00:13:58;3.15;;;1.42;;
35990;SDS011;22064;42.672;23.282;2022-11-20T00:16:27;6.30;;;1.85;;
35990;SDS011;22064;42.672;23.282;2022-11-20T00:18:54;8.68;;;1.45;;
35990;SDS011;22064;42.672;23.282;2022-11-20T00:21:24;3.65;;;1.50;;
35990;SDS011;22064;42.672;23.282;2022-11-20T00:23:52;4.47;;;1.30;;
35990;SDS011;22064;42.672;23.282;2022-11-20T00:26:20;3.83;;;1.45;;
35990;SDS011;22064;42.672;23.282;2022-11-20T00:28:50;8.02;;;1.60;;
35990;SDS011;22064;42.672;23.282;2022-11-20T00:31:18;2.55;;;1.48;;
35990;SDS011;22064;42.672;23.282;2022-11-20T00:33:44;5.63;;;1.38;;
35990;SDS011;22064;42.672;23.282;2022-11-20T00:36:14;7.22;;;1.55;;
35990;SDS011;22064;42.672;23.282;2022-11-20T00:38:44;6.43;;;1.85;;
35990;SDS011;22064;42.672;23.282;2022-11-20T00:41:11;4.05;;;1.50;;
35990;SDS011;22064;42.672;23.282;2022-11-20T00:43:39;4.13;;;1.38;;
35990;SDS011;22064;42.672;23.282;2022-11-20T00:46:05;3.28;;;1.70;;
35990;SDS011;22064;42.672;23.282;2022-11-20T00:48:33;4.73;;;1.83;;
35990;SDS011;22064;42.672;23.282;2022-11-20T00:50:59;7.15;;;1.80;;
35990;SDS011;22064;42.672;23.282;2022-11-20T00:53:25;3.97;;;1.50;;
35990;SDS011;22064;42.672;23.282;2022-11-20T00:55:55;7.32;;;1.85;;
35990;SDS011;22064;42.672;23.282;2022-11-20T00:58:22;3.13;;;1.60;;
35990;SDS011;22064;42.672;23.282;2022-11-20T01:00:48;2.42;;;1.40;;
35990;SDS011;22064;42.672;23.282;2022-11-20T01:03:15;6.13;;;1.73;;
35990;SDS011;22064;42.672;23.282;2022-11-20T01:05:41;5.20;;;1.60;;
35990;SDS011;22064;42.672;23.282;2022-11-20T01:08:07;3.70;;;1.60;;
35990;SDS011;22064;42.672;23.282;2022-11-20T01:10:32;6.20;;;1.45;;
35990;SDS011;22064;42.672;23.282;2022-11-20T01:12:58;5.97;;;1.88;;
35990;SDS011;22064;42.672;23.282;2022-11-20T01:15:42;7.65;;;1.95;;
35990;SDS011;22064;42.672;23.282;2022-11-20T01:18:07;4.20;;;1.60;;
35990;SDS011;22064;42.672;23.282;2022-11-20T01:20:36;5.20;;;1.73;;
35990;SDS011;22064;42.672;23.282;2022-11-20T01:23:02;2.80;;;1.33;;
35990;SDS011;22064;42.672;23.282;2022-11-20T01:25:29;3.78;;;1.40;;
35990;SDS011;22064;42.672;23.282;2022-11-20T01:27:55;3.15;;;1.40;;
35990;SDS011;22064;42.672;23.282;2022-11-20T01:30:20;3.08;;;1.60;;
35990;SDS011;22064;42.672;23.282;2022-11-20T01:32:46;3.97;;;1.52;;
35990;SDS011;22064;42.672;23.282;2022-11-20T01:35:11;4.05;;;1.50;;
35990;SDS011;22064;42.672;23.282;2022-11-20T01:37:37;4.72;;;1.23;;
35990;SDS011;22064;42.672;23.282;2022-11-20T01:40:02;3.30;;;1.50;;
35990;SDS011;22064;42.672;23.282;2022-11-20T01:42:28;2.83;;;1.42;;
35990;SDS011;22064;42.672;23.282;2022-11-20T01:48:12;6.80;;;1.67;;
35990;SDS011;22064;42.672;23.282;2022-11-20T01:50:38;5.57;;;1.60;;
35990;SDS011;22064;42.672;23.282;2022-11-20T01:53:10;4.13;;;1.20;;
35990;SDS011;22064;42.672;23.282;2022-11-20T01:55:41;3.05;;;1.40;;
35990;SDS011;22064;42.672;23.282;2022-11-20T01:58:11;5.25;;;1.20;;
35990;SDS011;22064;42.672;23.282;2022-11-20T02:00:38;3.50;;;1.27;;
35990;SDS011;22064;42.672;23.282;2022-11-20T02:03:04;3.92;;;1.70;;
35990;SDS011;22064;42.672;23.282;2022-11-20T02:05:35;4.72;;;1.25;;
35990;SDS011;22064;42.672;23.282;2022-11-20T02:08:05;6.68;;;1.55;;
35990;SDS011;22064;42.672;23.282;2022-11-20T02:10:31;2.30;;;1.35;;
35990;SDS011;22064;42.672;23.282;2022-11-20T02:12:57;5.88;;;1.40;;
35990;SDS011;22064;42.672;23.282;2022-11-20T02:15:41;4.97;;;1.65;;
35990;SDS011;22064;42.672;23.282;2022-11-20T02:18:07;2.65;;;1.35;;
35990;SDS011;22064;42.672;23.282;2022-11-20T02:20:35;4.72;;;1.67;;
35990;SDS011;22064;42.672;23.282;2022-11-20T02:25:49;4.72;;;1.25;;
35990;SDS011;22064;42.672;23.282;2022-11-20T02:28:16;5.65;;;1.27;;
35990;SDS011;22064;42.672;23.282;2022-11-20T02:30:43;8.00;;;1.77;;
35990;SDS011;22064;42.672;23.282;2022-11-20T02:33:08;4.55;;;1.40;;
35990;SDS011;22064;42.672;23.282;2022-11-20T02:38:00;3.30;;;1.30;;
35990;SDS011;22064;42.672;23.282;2022-11-20T02:40:27;5.82;;;1.52;;
35990;SDS011;22064;42.672;23.282;2022-11-20T02:42:54;4.25;;;1.35;;
35990;SDS011;22064;42.672;23.282;2022-11-20T02:45:20;6.75;;;1.55;;
35990;SDS011;22064;42.672;23.282;2022-11-20T02:47:46;12.70;;;4.63;;
35990;SDS011;22064;42.672;23.282;2022-11-20T02:50:11;6.20;;;1.42;;
35990;SDS011;22064;42.672;23.282;2022-11-20T02:52:37;5.32;;;1.50;;
35990;SDS011;22064;42.672;23.282;2022-11-20T02:55:03;4.82;;;1.70;;
35990;SDS011;22064;42.672;23.282;2022-11-20T02:57:28;3.53;;;1.30;;
35990;SDS011;22064;42.672;23.282;2022-11-20T02:59:54;4.38;;;1.50;;
35990;SDS011;22064;42.672;23.282;2022-11-20T03:02:19;3.00;;;1.42;;
35990;SDS011;22064;42.672;23.282;2022-11-20T03:04:45;7.85;;;1.98;;
35990;SDS011;22064;42.672;23.282;2022-11-20T03:07:11;5.25;;;1.70;;
35990;SDS011;22064;42.672;23.282;2022-11-20T03:09:39;4.82;;;1.63;;
35990;SDS011;22064;42.672;23.282;2022-11-20T03:12:05;5.88;;;2.00;;
35990;SDS011;22064;42.672;23.282;2022-11-20T03:14:31;10.65;;;2.38;;
35990;SDS011;22064;42.672;23.282;2022-11-20T03:16:56;4.20;;;1.80;;
35990;SDS011;22064;42.672;23.282;2022-11-20T03:19:22;6.63;;;1.83;;
35990;SDS011;22064;42.672;23.282;2022-11-20T03:21:48;6.80;;;1.63;;
35990;SDS011;22064;42.672;23.282;2022-11-20T03:24:13;6.13;;;1.77;;
35990;SDS011;22064;42.672;23.282;2022-11-20T03:26:39;2.05;;;1.42;;
35990;SDS011;22064;42.672;23.282;2022-11-20T03:29:05;4.75;;;1.30;;
35990;SDS011;22064;42.672;23.282;2022-11-20T03:31:32;5.75;;;1.42;;
35990;SDS011;22064;42.672;23.282;2022-11-20T03:34:00;4.80;;;1.30;;
35990;SDS011;22064;42.672;23.282;2022-11-20T03:36:26;6.03;;;1.73;;
35990;SDS011;22064;42.672;23.282;2022-11-20T03:38:53;2.13;;;1.33;;
35990;SDS011;22064;42.672;23.282;2022-11-20T03:41:21;5.47;;;1.25;;
35990;SDS011;22064;42.672;23.282;2022-11-20T03:43:52;6.93;;;1.50;;
35990;SDS011;22064;42.672;23.282;2022-11-20T03:46:18;9.80;;;1.85;;
35990;SDS011;22064;42.672;23.282;2022-11-20T03:48:44;5.35;;;1.48;;
35990;SDS011;22064;42.672;23.282;2022-11-20T03:51:13;3.90;;;1.42;;
35990;SDS011;22064;42.672;23.282;2022-11-20T03:53:47;4.97;;;1.52;;
35990;SDS011;22064;42.672;23.282;2022-11-20T03:56:14;5.45;;;1.80;;
35990;SDS011;22064;42.672;23.282;2022-11-20T03:58:42;4.60;;;2.03;;
35990;SDS011;22064;42.672;23.282;2022-11-20T04:03:41;3.88;;;1.60;;
35990;SDS011;22064;42.672;23.282;2022-11-20T04:06:12;4.75;;;1.35;;
35990;SDS011;22064;42.672;23.282;2022-11-20T04:08:42;4.68;;;1.33;;
35990;SDS011;22064;42.672;23.282;2022-11-20T04:11:15;5.88;;;1.58;;
35990;SDS011;22064;42.672;23.282;2022-11-20T04:13:47;5.95;;;1.33;;
35990;SDS011;22064;42.672;23.282;2022-11-20T04:16:14;5.40;;;1.42;;
35990;SDS011;22064;42.672;23.282;2022-11-20T04:18:40;2.90;;;1.30;;
35990;SDS011;22064;42.672;23.282;2022-11-20T04:21:06;6.65;;;1.67;;
35990;SDS011;22064;42.672;23.282;2022-11-20T04:23:32;3.78;;;1.25;;
35990;SDS011;22064;42.672;23.282;2022-11-20T04:26:05;5.15;;;1.55;;
35990;SDS011;22064;42.672;23.282;2022-11-20T04:28:35;4.35;;;1.60;;
35990;SDS011;22064;42.672;23.282;2022-11-20T04:31:02;4.85;;;1.40;;
35990;SDS011;22064;42.672;23.282;2022-11-20T04:33:31;5.07;;;1.40;;
35990;SDS011;22064;42.672;23.282;2022-11-20T04:36:01;2.78;;;1.40;;
35990;SDS011;22064;42.672;23.282;2022-11-20T04:38:57;4.53;;;1.48;;
35990;SDS011;22064;42.672;23.282;2022-11-20T04:41:25;5.10;;;1.58;;
35990;SDS011;22064;42.672;23.282;2022-11-20T04:43:54;4.50;;;1.63;;
35990;SDS011;22064;42.672;23.282;2022-11-20T04:46:31;8.43;;;1.20;;
35990;SDS011;22064;42.672;23.282;2022-11-20T04:49:07;3.80;;;1.45;;
35990;SDS011;22064;42.672;23.282;2022-11-20T04:51:33;5.50;;;1.33;;
35990;SDS011;22064;42.672;23.282;2022-11-20T04:53:59;3.75;;;1.42;;
35990;SDS011;22064;42.672;23.282;2022-11-20T04:56:24;4.00;;;1.50;;
35990;SDS011;22064;42.672;23.282;2022-11-20T04:58:50;4.85;;;1.55;;
35990;SDS011;22064;42.672;23.282;2022-11-20T05:01:17;2.85;;;1.30;;
35990;SDS011;22064;42.672;23.282;2022-11-20T05:03:45;3.60;;;1.30;;
35990;SDS011;22064;42.672;23.282;2022-11-20T05:06:11;3.00;;;1.52;;
35990;SDS011;22064;42.672;23.282;2022-11-20T05:08:38;5.10;;;1.33;;
35990;SDS011;22064;42.672;23.282;2022-11-20T05:11:05;6.70;;;1.42;;
35990;SDS011;22064;42.672;23.282;2022-11-20T05:13:39;4.03;;;1.15;;
35990;SDS011;22064;42.672;23.282;2022-11-20T05:16:12;2.83;;;1.23;;
35990;SDS011;22064;42.672;23.282;2022-11-20T05:18:39;3.22;;;1.40;;
35990;SDS011;22064;42.672;23.282;2022-11-20T05:21:06;5.53;;;1.30;;
35990;SDS011;22064;42.672;23.282;2022-11-20T05:23:32;2.17;;;1.17;;
35990;SDS011;22064;42.672;23.282;2022-11-20T05:25:59;4.90;;;1.15;;
35990;SDS011;22064;42.672;23.282;2022-11-20T05:28:26;3.10;;;1.02;;
35990;SDS011;22064;42.672;23.282;2022-11-20T05:30:52;3.17;;;1.20;;
35990;SDS011;22064;42.672;23.282;2022-11-20T05:33:18;4.88;;;1.27;;
35990;SDS011;22064;42.672;23.282;2022-11-20T05:35:43;3.88;;;1.48;;
35990;SDS011;22064;42.672;23.282;2022-11-20T05:38:09;5.47;;;1.30;;
35990;SDS011;22064;42.672;23.282;2022-11-20T05:40:35;5.30;;;1.80;;
35990;SDS011;22064;42.672;23.282;2022-11-20T05:43:01;4.15;;;1.77;;
35990;SDS011;22064;42.672;23.282;2022-11-20T05:45:26;7.20;;;1.80;;
35990;SDS011;22064;42.672;23.282;2022-11-20T05:47:52;4.68;;;1.23;;
35990;SDS011;22064;42.672;23.282;2022-11-20T05:50:18;5.13;;;1.58;;
35990;SDS011;22064;42.672;23.282;2022-11-20T05:52:44;4.90;;;1.20;;
35990;SDS011;22064;42.672;23.282;2022-11-20T05:55:09;5.68;;;1.50;;
35990;SDS011;22064;42.672;23.282;2022-11-20T05:57:35;7.50;;;1.60;;
35990;SDS011;22064;42.672;23.282;2022-11-20T06:00:01;5.15;;;1.23;;
35990;SDS011;22064;42.672;23.282;2022-11-20T06:02:29;4.47;;;1.17;;
35990;SDS011;22064;42.672;23.282;2022-11-20T06:04:55;3.55;;;1.40;;
35990;SDS011;22064;42.672;23.282;2022-11-20T06:07:20;4.80;;;1.38;;
35990;SDS011;22064;42.672;23.282;2022-11-20T06:09:46;2.95;;;1.35;;
35990;SDS011;22064;42.672;23.282;2022-11-20T06:12:11;5.10;;;1.20;;
35990;SDS011;22064;42.672;23.282;2022-11-20T06:14:36;4.57;;;1.65;;
35990;SDS011;22064;42.672;23.282;2022-11-20T06:17:02;4.85;;;1.50;;
35990;SDS011;22064;42.672;23.282;2022-11-20T06:19:27;6.30;;;2.30;;
35990;SDS011;22064;42.672;23.282;2022-11-20T06:21:53;5.78;;;1.13;;
35990;SDS011;22064;42.672;23.282;2022-11-20T06:24:18;3.92;;;1.10;;
35990;SDS011;22064;42.672;23.282;2022-11-20T06:26:44;3.88;;;1.40;;
35990;SDS011;22064;42.672;23.282;2022-11-20T06:29:09;7.35;;;1.85;;
35990;SDS011;22064;42.672;23.282;2022-11-20T06:31:35;3.40;;;1.27;;
35990;SDS011;22064;42.672;23.282;2022-11-20T06:34:05;4.40;;;1.30;;
35990;SDS011;22064;42.672;23.282;2022-11-20T06:36:31;8.65;;;1.70;;
35990;SDS011;22064;42.672;23.282;2022-11-20T06:38:57;2.38;;;1.10;;
35990;SDS011;22064;42.672;23.282;2022-11-20T06:41:23;4.05;;;1.17;;
35990;SDS011;22064;42.672;23.282;2022-11-20T06:43:50;5.90;;;1.85;;
35990;SDS011;22064;42.672;23.282;2022-11-20T06:46:17;4.15;;;1.45;;
35990;SDS011;22064;42.672;23.282;2022-11-20T06:48:43;2.22;;;1.30;;
35990;SDS011;22064;42.672;23.282;2022-11-20T06:51:09;4.72;;;1.35;;
35990;SDS011;22064;42.672;23.282;2022-11-20T06:53:35;2.45;;;1.10;;
35990;SDS011;22064;42.672;23.282;2022-11-20T06:56:01;3.35;;;1.40;;
35990;SDS011;22064;42.672;23.282;2022-11-20T06:58:27;4.18;;;1.63;;
35990;SDS011;22064;42.672;23.282;2022-11-20T07:00:57;2.63;;;1.10;;
35990;SDS011;22064;42.672;23.282;2022-11-20T07:03:26;3.58;;;1.30;;
35990;SDS011;22064;42.672;23.282;2022-11-20T07:05:54;1.90;;;1.10;;
35990;SDS011;22064;42.672;23.282;2022-11-20T07:08:20;4.03;;;1.33;;
35990;SDS011;22064;42.672;23.282;2022-11-20T07:10:46;6.07;;;1.48;;
35990;SDS011;22064;42.672;23.282;2022-11-20T07:13:12;7.63;;;1.30;;
35990;SDS011;22064;42.672;23.282;2022-11-20T07:15:37;3.33;;;1.20;;
35990;SDS011;22064;42.672;23.282;2022-11-20T07:18:03;4.63;;;1.23;;
35990;SDS011;22064;42.672;23.282;2022-11-20T07:20:28;6.07;;;1.30;;
35990;SDS011;22064;42.672;23.282;2022-11-20T07:22:54;5.50;;;1.67;;
35990;SDS011;22064;42.672;23.282;2022-11-20T07:25:21;6.30;;;1.98;;
35990;SDS011;22064;42.672;23.282;2022-11-20T07:27:47;5.97;;;1.60;;
35990;SDS011;22064;42.672;23.282;2022-11-20T07:30:13;4.85;;;1.70;;
35990;SDS011;22064;42.672;23.282;2022-11-20T07:32:39;5.15;;;1.63;;
35990;SDS011;22064;42.672;23.282;2022-11-20T07:35:05;2.78;;;1.35;;
35990;SDS011;22064;42.672;23.282;2022-11-20T07:37:33;6.70;;;1.65;;
35990;SDS011;22064;42.672;23.282;2022-11-20T07:39:59;5.18;;;1.67;;
35990;SDS011;22064;42.672;23.282;2022-11-20T07:42:25;3.78;;;1.35;;
35990;SDS011;22064;42.672;23.282;2022-11-20T07:44:50;7.97;;;1.67;;
35990;SDS011;22064;42.672;23.282;2022-11-20T07:47:16;8.55;;;1.60;;
35990;SDS011;22064;42.672;23.282;2022-11-20T07:49:41;8.63;;;1.75;;
35990;SDS011;22064;42.672;23.282;2022-11-20T07:52:07;4.30;;;1.30;;
35990;SDS011;22064;42.672;23.282;2022-11-20T07:54:32;7.03;;;1.27;;
35990;SDS011;22064;42.672;23.282;2022-11-20T07:56:58;8.43;;;1.73;;
35990;SDS011;22064;42.672;23.282;2022-11-20T07:59:23;3.45;;;1.80;;
35990;SDS011;22064;42.672;23.282;2022-11-20T08:01:49;6.15;;;2.10;;
35990;SDS011;22064;42.672;23.282;2022-11-20T08:04:15;6.80;;;1.55;;
35990;SDS011;22064;42.672;23.282;2022-11-20T08:06:41;7.53;;;2.30;;
35990;SDS011;22064;42.672;23.282;2022-11-20T08:09:06;8.10;;;2.38;;
35990;SDS011;22064;42.672;23.282;2022-11-20T08:11:32;8.95;;;2.20;;
35990;SDS011;22064;42.672;23.282;2022-11-20T08:14:16;4.93;;;2.20;;
35990;SDS011;22064;42.672;23.282;2022-11-20T08:16:45;9.52;;;2.42;;
35990;SDS011;22064;42.672;23.282;2022-11-20T08:19:13;6.78;;;2.25;;
35990;SDS011;22064;42.672;23.282;2022-11-20T08:21:39;8.20;;;2.53;;
35990;SDS011;22064;42.672;23.282;2022-11-20T08:24:05;8.77;;;1.80;;
35990;SDS011;22064;42.672;23.282;2022-11-20T08:26:32;8.35;;;1.83;;
35990;SDS011;22064;42.672;23.282;2022-11-20T08:28:58;8.10;;;1.85;;
35990;SDS011;22064;42.672;23.282;2022-11-20T08:31:25;10.23;;;2.20;;
35990;SDS011;22064;42.672;23.282;2022-11-20T08:33:52;7.18;;;2.00;;
35990;SDS011;22064;42.672;23.282;2022-11-20T08:36:18;6.25;;;1.65;;
35990;SDS011;22064;42.672;23.282;2022-11-20T08:39:02;7.40;;;1.90;;
35990;SDS011;22064;42.672;23.282;2022-11-20T08:41:28;6.40;;;1.88;;
35990;SDS011;22064;42.672;23.282;2022-11-20T08:43:57;6.05;;;1.65;;
35990;SDS011;22064;42.672;23.282;2022-11-20T08:46:30;6.57;;;2.25;;
35990;SDS011;22064;42.672;23.282;2022-11-20T08:48:59;13.48;;;2.47;;
35990;SDS011;22064;42.672;23.282;2022-11-20T08:51:24;8.93;;;2.10;;
35990;SDS011;22064;42.672;23.282;2022-11-20T08:53:50;11.00;;;3.00;;
35990;SDS011;22064;42.672;23.282;2022-11-20T08:56:15;8.38;;;3.08;;
35990;SDS011;22064;42.672;23.282;2022-11-20T08:58:42;7.97;;;3.80;;
35990;SDS011;22064;42.672;23.282;2022-11-20T09:01:08;9.48;;;3.63;;
35990;SDS011;22064;42.672;23.282;2022-11-20T09:03:33;7.25;;;3.47;;
35990;SDS011;22064;42.672;23.282;2022-11-20T09:05:59;11.07;;;3.92;;
35990;SDS011;22064;42.672;23.282;2022-11-20T09:08:27;8.00;;;3.30;;
35990;SDS011;22064;42.672;23.282;2022-11-20T09:10:53;12.35;;;3.13;;
35990;SDS011;22064;42.672;23.282;2022-11-20T09:13:20;11.02;;;3.85;;
35990;SDS011;22064;42.672;23.282;2022-11-20T09:15:47;10.07;;;3.35;;
35990;SDS011;22064;42.672;23.282;2022-11-20T09:18:17;8.88;;;3.47;;
35990;SDS011;22064;42.672;23.282;2022-11-20T09:20:42;9.10;;;3.05;;
35990;SDS011;22064;42.672;23.282;2022-11-20T09:23:08;7.32;;;2.17;;
35990;SDS011;22064;42.672;23.282;2022-11-20T09:25:33;5.10;;;1.92;;
35990;SDS011;22064;42.672;23.282;2022-11-20T09:27:59;5.90;;;1.90;;
35990;SDS011;22064;42.672;23.282;2022-11-20T09:30:25;6.40;;;1.75;;
35990;SDS011;22064;42.672;23.282;2022-11-20T09:32:51;4.35;;;1.77;;
35990;SDS011;22064;42.672;23.282;2022-11-20T09:35:17;7.53;;;1.85;;
35990;SDS011;22064;42.672;23.282;2022-11-20T09:37:43;1.98;;;1.50;;
35990;SDS011;22064;42.672;23.282;2022-11-20T09:48:36;7.95;;;1.98;;
35990;SDS011;22064;42.672;23.282;2022-11-20T09:54:07;9.95;;;2.53;;
35990;SDS011;22064;42.672;23.282;2022-11-20T09:56:39;8.23;;;2.90;;
35990;SDS011;22064;42.672;23.282;2022-11-20T09:59:14;10.63;;;3.08;;
35990;SDS011;22064;42.672;23.282;2022-11-20T10:01:58;6.90;;;2.80;;
35990;SDS011;22064;42.672;23.282;2022-11-20T10:04:25;11.23;;;3.17;;
35990;SDS011;22064;42.672;23.282;2022-11-20T10:06:59;10.20;;;3.30;;
35990;SDS011;22064;42.672;23.282;2022-11-20T10:09:48;10.38;;;3.60;;
35990;SDS011;22064;42.672;23.282;2022-11-20T10:28:27;12.98;;;3.90;;
35990;SDS011;22064;42.672;23.282;2022-11-20T10:31:14;13.07;;;3.40;;
35990;SDS011;22064;42.672;23.282;2022-11-20T10:33:52;8.93;;;3.25;;
35990;SDS011;22064;42.672;23.282;2022-11-20T10:36:30;8.95;;;3.17;;
35990;SDS011;22064;42.672;23.282;2022-11-20T10:42:10;10.52;;;3.65;;
35990;SDS011;22064;42.672;23.282;2022-11-20T10:44:40;15.65;;;4.63;;
35990;SDS011;22064;42.672;23.282;2022-11-20T10:47:27;13.50;;;4.00;;
35990;SDS011;22064;42.672;23.282;2022-11-20T10:49:55;12.68;;;4.07;;
35990;SDS011;22064;42.672;23.282;2022-11-20T10:55:28;17.17;;;5.07;;
35990;SDS011;22064;42.672;23.282;2022-11-20T10:58:04;13.77;;;4.90;;
35990;SDS011;22064;42.672;23.282;2022-11-20T11:00:38;18.55;;;5.28;;
35990;SDS011;22064;42.672;23.282;2022-11-20T11:03:23;13.43;;;4.22;;
35990;SDS011;22064;42.672;23.282;2022-11-20T11:08:42;0.65;;;0.40;;
35990;SDS011;22064;42.672;23.282;2022-11-20T11:11:18;0.68;;;0.55;;
35990;SDS011;22064;42.672;23.282;2022-11-20T11:13:48;0.10;;;0.10;;
35990;SDS011;22064;42.672;23.282;2022-11-20T11:16:21;0.17;;;0.17;;
35990;SDS011;22064;42.672;23.282;2022-11-20T11:18:48;0.00;;;0.00;;
35990;SDS011;22064;42.672;23.282;2022-11-20T11:21:19;0.10;;;0.10;;
35990;SDS011;22064;42.672;23.282;2022-11-20T11:23:48;0.10;;;0.10;;
35990;SDS011;22064;42.672;23.282;2022-11-20T11:26:24;1.20;;;0.43;;
35990;SDS011;22064;42.672;23.282;2022-11-20T11:28:56;0.00;;;0.00;;
35990;SDS011;22064;42.672;23.282;2022-11-20T11:31:24;1.88;;;0.80;;
35990;SDS011;22064;42.672;23.282;2022-11-20T11:33:50;0.63;;;0.63;;
35990;SDS011;22064;42.672;23.282;2022-11-20T11:36:22;0.20;;;0.20;;
35990;SDS011;22064;42.672;23.282;2022-11-20T11:38:51;0.52;;;0.52;;
35990;SDS011;22064;42.672;23.282;2022-11-20T11:41:20;0.90;;;0.52;;
35990;SDS011;22064;42.672;23.282;2022-11-20T11:43:56;2.65;;;0.75;;
35990;SDS011;22064;42.672;23.282;2022-11-20T11:46:45;0.00;;;0.00;;
35990;SDS011;22064;42.672;23.282;2022-11-20T11:49:18;1.00;;;0.70;;
35990;SDS011;22064;42.672;23.282;2022-11-20T11:51:57;0.08;;;0.08;;
35990;SDS011;22064;42.672;23.282;2022-11-20T11:54:24;0.40;;;0.40;;
35990;SDS011;22064;42.672;23.282;2022-11-20T11:56:53;0.20;;;0.20;;
35990;SDS011;22064;42.672;23.282;2022-11-20T11:59:25;0.88;;;0.32;;
35990;SDS011;22064;42.672;23.282;2022-11-20T12:02:00;0.05;;;0.05;;
35990;SDS011;22064;42.672;23.282;2022-11-20T12:04:46;7.32;;;2.33;;
35990;SDS011;22064;42.672;23.282;2022-11-20T12:07:22;6.32;;;1.40;;
35990;SDS011;22064;42.672;23.282;2022-11-20T12:12:36;4.25;;;1.00;;
35990;SDS011;22064;42.672;23.282;2022-11-20T12:15:07;5.70;;;1.70;;
35990;SDS011;22064;42.672;23.282;2022-11-20T12:17:38;3.40;;;1.25;;
35990;SDS011;22064;42.672;23.282;2022-11-20T12:20:11;5.82;;;1.05;;
35990;SDS011;22064;42.672;23.282;2022-11-20T12:36:19;25.33;;;11.18;;
35990;SDS011;22064;42.672;23.282;2022-11-20T12:41:31;4.32;;;0.95;;
35990;SDS011;22064;42.672;23.282;2022-11-20T13:01:25;12.02;;;3.72;;
35990;SDS011;22064;42.672;23.282;2022-11-20T13:04:16;10.57;;;4.03;;
35990;SDS011;22064;42.672;23.282;2022-11-20T13:06:44;17.05;;;4.75;;
35990;SDS011;22064;42.672;23.282;2022-11-20T13:09:14;10.55;;;4.07;;
35990;SDS011;22064;42.672;23.282;2022-11-20T13:12:03;14.23;;;5.28;;
35990;SDS011;22064;42.672;23.282;2022-11-20T13:17:13;11.30;;;3.55;;
35990;SDS011;22064;42.672;23.282;2022-11-20T13:19:54;10.48;;;4.50;;
35990;SDS011;22064;42.672;23.282;2022-11-20T13:22:41;16.15;;;6.63;;
35990;SDS011;22064;42.672;23.282;2022-11-20T13:28:00;10.00;;;3.95;;
35990;SDS011;22064;42.672;23.282;2022-11-20T13:35:31;16.83;;;7.40;;
35990;SDS011;22064;42.672;23.282;2022-11-20T13:38:46;18.80;;;7.38;;
35990;SDS011;22064;42.672;23.282;2022-11-20T13:40:54;15.95;;;6.28;;
35990;SDS011;22064;42.672;23.282;2022-11-20T13:43:40;13.32;;;5.32;;
35990;SDS011;22064;42.672;23.282;2022-11-20T13:46:07;13.60;;;5.22;;
35990;SDS011;22064;42.672;23.282;2022-11-20T13:48:44;13.98;;;5.85;;
35990;SDS011;22064;42.672;23.282;2022-11-20T13:51:17;11.60;;;5.43;;
35990;SDS011;22064;42.672;23.282;2022-11-20T13:54:14;15.75;;;5.60;;
35990;SDS011;22064;42.672;23.282;2022-11-20T14:02:39;17.00;;;6.60;;
35990;SDS011;22064;42.672;23.282;2022-11-20T14:05:11;14.65;;;4.70;;
35990;SDS011;22064;42.672;23.282;2022-11-20T14:07:50;14.98;;;7.00;;
35990;SDS011;22064;42.672;23.282;2022-11-20T14:10:28;13.27;;;4.93;;
35990;SDS011;22064;42.672;23.282;2022-11-20T14:12:54;9.02;;;3.35;;
35990;SDS011;22064;42.672;23.282;2022-11-20T14:15:28;8.48;;;3.53;;
35990;SDS011;22064;42.672;23.282;2022-11-20T14:17:55;8.23;;;3.45;;
35990;SDS011;22064;42.672;23.282;2022-11-20T14:20:20;11.10;;;3.00;;
35990;SDS011;22064;42.672;23.282;2022-11-20T14:22:53;6.00;;;2.50;;
35990;SDS011;22064;42.672;23.282;2022-11-20T14:27:55;6.47;;;2.38;;
35990;SDS011;22064;42.672;23.282;2022-11-20T14:30:23;6.72;;;2.75;;
35990;SDS011;22064;42.672;23.282;2022-11-20T14:32:51;5.90;;;2.85;;
35990;SDS011;22064;42.672;23.282;2022-11-20T14:37:52;13.65;;;3.88;;
35990;SDS011;22064;42.672;23.282;2022-11-20T14:40:23;6.80;;;2.78;;
35990;SDS011;22064;42.672;23.282;2022-11-20T14:42:51;7.28;;;3.00;;
35990;SDS011;22064;42.672;23.282;2022-11-20T14:45:17;9.40;;;3.20;;
35990;SDS011;22064;42.672;23.282;2022-11-20T14:47:43;5.97;;;3.30;;
35990;SDS011;22064;42.672;23.282;2022-11-20T14:50:14;8.30;;;3.60;;
35990;SDS011;22064;42.672;23.282;2022-11-20T14:52:53;8.80;;;3.25;;
35990;SDS011;22064;42.672;23.282;2022-11-20T14:55:30;6.85;;;2.83;;
35990;SDS011;22064;42.672;23.282;2022-11-20T14:58:03;4.43;;;2.70;;
35990;SDS011;22064;42.672;23.282;2022-11-20T15:00:31;5.97;;;2.53;;
35990;SDS011;22064;42.672;23.282;2022-11-20T15:02:59;4.78;;;2.42;;
35990;SDS011;22064;42.672;23.282;2022-11-20T15:05:37;4.70;;;2.30;;
35990;SDS011;22064;42.672;23.282;2022-11-20T15:08:10;5.82;;;2.65;;
35990;SDS011;22064;42.672;23.282;2022-11-20T15:10:37;5.68;;;2.80;;
35990;SDS011;22064;42.672;23.282;2022-11-20T15:13:05;5.70;;;2.10;;
35990;SDS011;22064;42.672;23.282;2022-11-20T15:15:40;3.72;;;2.17;;
35990;SDS011;22064;42.672;23.282;2022-11-20T15:18:10;5.07;;;2.25;;
35990;SDS011;22064;42.672;23.282;2022-11-20T15:20:57;4.30;;;2.50;;
35990;SDS011;22064;42.672;23.282;2022-11-20T15:23:26;6.40;;;2.60;;
35990;SDS011;22064;42.672;23.282;2022-11-20T15:25:52;4.97;;;3.25;;
35990;SDS011;22064;42.672;23.282;2022-11-20T15:28:24;10.05;;;2.85;;
35990;SDS011;22064;42.672;23.282;2022-11-20T15:30:58;6.68;;;2.65;;
35990;SDS011;22064;42.672;23.282;2022-11-20T15:33:25;5.55;;;2.72;;
35990;SDS011;22064;42.672;23.282;2022-11-20T15:35:50;6.70;;;3.28;;
35990;SDS011;22064;42.672;23.282;2022-11-20T15:38:16;8.75;;;3.58;;
35990;SDS011;22064;42.672;23.282;2022-11-20T15:40:41;10.55;;;4.00;;
35990;SDS011;22064;42.672;23.282;2022-11-20T15:43:07;8.55;;;3.20;;
35990;SDS011;22064;42.672;23.282;2022-11-20T15:45:34;13.95;;;4.10;;
35990;SDS011;22064;42.672;23.282;2022-11-20T15:50:36;7.95;;;3.38;;
35990;SDS011;22064;42.672;23.282;2022-11-20T15:53:04;8.65;;;3.33;;
35990;SDS011;22064;42.672;23.282;2022-11-20T15:55:29;9.10;;;3.67;;
35990;SDS011;22064;42.672;23.282;2022-11-20T15:57:55;7.68;;;3.40;;
35990;SDS011;22064;42.672;23.282;2022-11-20T16:00:21;9.52;;;3.63;;
35990;SDS011;22064;42.672;23.282;2022-11-20T16:02:46;7.15;;;3.63;;
35990;SDS011;22064;42.672;23.282;2022-11-20T16:05:12;8.93;;;3.00;;
35990;SDS011;22064;42.672;23.282;2022-11-20T16:07:40;7.70;;;2.80;;
35990;SDS011;22064;42.672;23.282;2022-11-20T16:10:05;8.18;;;3.65;;
35990;SDS011;22064;42.672;23.282;2022-11-20T16:12:31;7.53;;;2.90;;
35990;SDS011;22064;42.672;23.282;2022-11-20T16:15:15;6.05;;;3.10;;
35990;SDS011;22064;42.672;23.282;2022-11-20T16:17:59;5.90;;;2.72;;
35990;SDS011;22064;42.672;23.282;2022-11-20T16:20:24;5.72;;;2.50;;
35990;SDS011;22064;42.672;23.282;2022-11-20T16:22:50;3.38;;;2.20;;
35990;SDS011;22064;42.672;23.282;2022-11-20T16:25:15;3.85;;;2.20;;
35990;SDS011;22064;42.672;23.282;2022-11-20T16:27:41;6.32;;;2.60;;
35990;SDS011;22064;42.672;23.282;2022-11-20T16:30:06;3.83;;;2.50;;
35990;SDS011;22064;42.672;23.282;2022-11-20T16:32:32;5.80;;;2.97;;